Time;durP1;ratioP1;P1;durP2;ratioP2;P2;SDS_P1;SDS_P2;PMS_P1;PMS_P2;Temp;Humidity;BMP_temperature;BMP_pressure;BME280_temperature;BME280_humidity;BME280_pressure;Samples;Min_cycle;Max_cycle;Signal;HPM_P1;HPM_P2
2024/01/25 00:01:25;;;;;;;36.83;9.23;;;9.60;1.00;;;;;;6156207;23;20226;-84
2024/01/25 00:03:50;;;;;;;49.67;9.87;;;9.60;1.00;;;;;;6153259;23;20230;-85
2024/01/25 00:06:16;;;;;;;36.53;7.93;;;9.60;1.00;;;;;;6154367;23;20171;-85
2024/01/25 00:08:42;;;;;;;38.63;9.90;;;9.60;1.00;;;;;;6153464;23;20159;-83
2024/01/25 00:11:09;;;;;;;47.47;8.50;;;9.60;1.00;;;;;;6152346;23;20432;-84
2024/01/25 00:13:34;;;;;;;41.23;9.60;;;9.60;1.00;;;;;;6153326;23;20183;-84
2024/01/25 00:16:00;;;;;;;40.57;9.23;;;9.60;1.00;;;;;;6153876;23;20684;-85
2024/01/25 00:18:25;;;;;;;39.47;8.10;;;9.60;1.00;;;;;;6151493;23;20186;-84
2024/01/25 00:20:51;;;;;;;51.70;8.03;;;9.60;1.00;;;;;;6154100;23;20186;-85
2024/01/25 00:23:17;;;;;;;35.27;8.63;;;9.60;1.00;;;;;;6150111;23;20210;-84
2024/01/25 00:25:42;;;;;;;44.50;8.30;;;9.50;1.00;;;;;;6154168;23;20371;-90
2024/01/25 00:28:08;;;;;;;45.93;8.53;;;9.50;1.00;;;;;;6152149;23;20166;-85
2024/01/25 00:30:34;;;;;;;43.50;8.80;;;9.50;1.00;;;;;;6154236;23;20158;-86
2024/01/25 00:32:59;;;;;;;43.77;9.50;;;9.60;1.00;;;;;;6151470;23;20158;-86
2024/01/25 00:35:25;;;;;;;43.60;9.43;;;9.50;1.00;;;;;;6154040;23;20244;-86
2024/01/25 00:37:51;;;;;;;37.93;8.93;;;9.50;1.00;;;;;;6153459;23;20658;-86
2024/01/25 00:40:18;;;;;;;44.97;9.80;;;9.50;1.00;;;;;;6153575;23;20379;-90
2024/01/25 00:42:52;;;;;;;51.37;10.27;;;9.50;1.00;;;;;;6154811;23;20462;-86
2024/01/25 00:45:22;;;;;;;32.00;7.57;;;9.50;1.00;;;;;;6154044;23;20889;-84
2024/01/25 00:47:47;;;;;;;44.20;9.53;;;9.50;1.00;;;;;;6154138;23;20394;-84
2024/01/25 00:50:13;;;;;;;44.70;10.30;;;9.50;1.00;;;;;;6151747;23;20423;-87
2024/01/25 00:52:39;;;;;;;46.80;10.10;;;9.50;1.00;;;;;;6152223;23;20471;-89
2024/01/25 00:55:06;;;;;;;37.53;9.77;;;9.40;1.00;;;;;;6152097;23;20413;-85
2024/01/25 00:57:32;;;;;;;37.07;8.30;;;9.40;1.00;;;;;;6151922;23;20686;-88
2024/01/25 00:59:58;;;;;;;38.97;8.30;;;9.40;1.00;;;;;;6152275;23;20383;-87
2024/01/25 01:02:30;;;;;;;39.80;9.27;;;9.40;1.00;;;;;;6153741;23;20159;-86
2024/01/25 01:04:56;;;;;;;48.13;9.10;;;9.40;1.00;;;;;;6151074;23;20627;-86
2024/01/25 01:07:22;;;;;;;36.50;10.20;;;9.40;1.00;;;;;;6152789;23;20390;-88
2024/01/25 01:09:48;;;;;;;39.67;9.20;;;9.40;1.00;;;;;;6152196;23;20443;-87
2024/01/25 01:12:13;;;;;;;43.63;9.77;;;9.40;1.00;;;;;;6151586;23;20156;-86
2024/01/25 01:14:39;;;;;;;48.37;11.10;;;9.40;1.00;;;;;;6152428;23;20271;-86
2024/01/25 01:17:05;;;;;;;46.77;9.63;;;9.30;1.00;;;;;;6155455;23;20378;-86
2024/01/25 01:19:31;;;;;;;47.43;9.20;;;9.30;1.00;;;;;;6156749;23;20689;-85
2024/01/25 01:21:56;;;;;;;44.43;9.30;;;9.30;1.00;;;;;;6156980;23;20387;-87
2024/01/25 01:24:22;;;;;;;46.67;11.20;;;9.20;1.00;;;;;;6155563;23;20187;-87
2024/01/25 01:26:48;;;;;;;48.57;10.83;;;9.20;1.00;;;;;;6153568;23;20155;-86
2024/01/25 01:29:14;;;;;;;39.40;8.23;;;9.20;1.00;;;;;;6151747;23;20166;-85
2024/01/25 01:31:39;;;;;;;49.83;8.23;;;9.10;1.00;;;;;;6152930;23;20721;-88
2024/01/25 01:34:05;;;;;;;35.27;9.10;;;9.10;1.00;;;;;;6152491;23;20187;-86
2024/01/25 01:36:30;;;;;;;45.27;7.30;;;9.00;1.00;;;;;;6152324;23;20152;-85
2024/01/25 01:38:56;;;;;;;42.63;8.80;;;9.00;1.00;;;;;;6155211;23;20571;-86
2024/01/25 01:41:21;;;;;;;41.40;9.17;;;9.00;1.00;;;;;;6150646;23;20572;-86
2024/01/25 01:43:47;;;;;;;46.30;9.80;;;8.90;1.00;;;;;;6154556;23;20254;-86
2024/01/25 01:46:39;;;;;;;48.53;11.00;;;8.90;1.00;;;;;;6154684;23;20630;-86
2024/01/25 01:49:11;;;;;;;46.23;9.40;;;8.90;1.00;;;;;;6154400;23;20136;-86
2024/01/25 01:51:37;;;;;;;40.33;8.53;;;8.80;1.00;;;;;;6155515;23;20390;-88
2024/01/25 01:54:05;;;;;;;35.43;8.27;;;8.80;1.00;;;;;;6154653;23;20394;-87
2024/01/25 01:56:32;;;;;;;50.77;10.37;;;8.80;1.00;;;;;;6151035;23;20374;-87
2024/01/25 01:59:01;;;;;;;49.20;9.27;;;8.70;1.00;;;;;;6154838;23;20430;-88
2024/01/25 02:01:28;;;;;;;50.57;9.43;;;8.70;1.00;;;;;;6153535;23;20492;-86
2024/01/25 02:03:53;;;;;;;41.80;8.40;;;8.70;1.00;;;;;;6149766;23;20419;-86
2024/01/25 02:06:20;;;;;;;45.80;9.63;;;8.60;1.00;;;;;;6154593;23;20386;-86
2024/01/25 02:08:47;;;;;;;39.83;8.90;;;8.60;1.00;;;;;;6152755;23;20491;-86
2024/01/25 02:11:13;;;;;;;46.57;10.00;;;8.60;1.00;;;;;;6152904;23;20383;-86
2024/01/25 02:13:38;;;;;;;47.57;8.73;;;8.60;1.00;;;;;;6150410;23;20499;-86
2024/01/25 02:16:06;;;;;;;43.60;11.37;;;8.50;1.00;;;;;;6153436;23;20159;-86
2024/01/25 02:18:33;;;;;;;44.50;8.90;;;8.50;1.00;;;;;;6150652;23;20190;-87
2024/01/25 02:20:58;;;;;;;51.73;9.50;;;8.50;1.00;;;;;;6155639;23;20498;-87
2024/01/25 02:23:24;;;;;;;54.90;9.70;;;8.40;1.00;;;;;;6154107;23;20430;-86
2024/01/25 02:25:50;;;;;;;43.97;9.90;;;8.40;1.00;;;;;;6155246;23;20140;-86
2024/01/25 02:28:15;;;;;;;50.80;10.43;;;8.40;1.00;;;;;;6154673;23;20653;-89
2024/01/25 02:30:41;;;;;;;43.37;8.60;;;8.40;1.00;;;;;;6154085;23;20148;-85
2024/01/25 02:33:06;;;;;;;46.87;10.03;;;8.40;1.00;;;;;;6152599;23;20503;-86
2024/01/25 02:35:32;;;;;;;40.47;9.63;;;8.30;1.00;;;;;;6153070;23;20148;-88
2024/01/25 02:37:57;;;;;;;54.27;10.33;;;8.40;1.00;;;;;;6151679;23;20190;-88
2024/01/25 02:40:23;;;;;;;54.10;9.23;;;8.40;1.00;;;;;;6154475;23;20155;-86
2024/01/25 02:42:49;;;;;;;50.90;8.77;;;8.30;1.00;;;;;;6153174;23;20183;-87
2024/01/25 02:45:14;;;;;;;44.90;9.23;;;8.30;1.00;;;;;;6152360;23;20915;-88
2024/01/25 02:47:40;;;;;;;49.90;10.77;;;8.30;1.00;;;;;;6151145;23;20148;-87
2024/01/25 02:50:06;;;;;;;41.63;8.93;;;8.30;1.00;;;;;;6150374;23;20159;-86
2024/01/25 02:52:31;;;;;;;42.23;10.60;;;8.30;1.00;;;;;;6152838;23;20654;-86
2024/01/25 02:54:57;;;;;;;46.37;9.40;;;8.30;1.00;;;;;;6154164;23;20458;-86
2024/01/25 02:57:23;;;;;;;39.67;8.00;;;8.30;1.00;;;;;;6154786;23;20544;-86
2024/01/25 02:59:48;;;;;;;42.47;9.60;;;8.20;1.00;;;;;;6153975;23;20275;-86
2024/01/25 03:02:16;;;;;;;46.37;10.37;;;8.20;1.00;;;;;;6152944;23;20387;-86
2024/01/25 03:04:42;;;;;;;44.90;9.40;;;8.20;1.00;;;;;;6153878;23;20175;-88
2024/01/25 03:07:07;;;;;;;42.73;9.87;;;8.20;1.00;;;;;;6154190;23;21007;-88
2024/01/25 03:09:33;;;;;;;52.57;9.40;;;8.20;1.00;;;;;;6154002;23;20227;-88
2024/01/25 03:11:58;;;;;;;47.03;10.07;;;8.20;1.00;;;;;;6153454;23;20187;-87
2024/01/25 03:14:24;;;;;;;40.27;8.33;;;8.20;1.00;;;;;;6153000;23;20250;-87
2024/01/25 03:16:50;;;;;;;47.10;9.50;;;8.20;1.00;;;;;;6153581;23;20274;-87
2024/01/25 03:19:15;;;;;;;41.97;10.10;;;8.20;1.00;;;;;;6151028;23;20195;-88
2024/01/25 03:21:41;;;;;;;40.53;10.43;;;8.20;1.00;;;;;;6151697;23;20479;-87
2024/01/25 03:24:06;;;;;;;44.63;9.60;;;8.10;1.00;;;;;;6155450;23;20647;-88
2024/01/25 03:26:32;;;;;;;52.73;11.50;;;8.10;1.00;;;;;;6152947;23;20162;-86
2024/01/25 03:28:57;;;;;;;60.43;10.10;;;8.10;1.00;;;;;;6153702;23;20159;-86
2024/01/25 03:31:23;;;;;;;48.70;9.07;;;8.00;1.00;;;;;;6155711;23;20186;-86
2024/01/25 03:33:48;;;;;;;51.53;9.37;;;8.00;1.00;;;;;;6156023;23;20234;-85
2024/01/25 03:36:17;;;;;;;55.83;9.10;;;8.00;1.00;;;;;;6155423;23;20171;-86
2024/01/25 03:38:43;;;;;;;49.10;10.70;;;7.90;1.00;;;;;;6155682;23;20218;-88
2024/01/25 03:41:09;;;;;;;38.10;9.27;;;7.90;1.00;;;;;;6153450;23;20383;-85
2024/01/25 03:43:35;;;;;;;48.00;9.60;;;7.90;1.00;;;;;;6156646;23;20399;-86
2024/01/25 03:46:01;;;;;;;54.23;11.90;;;7.80;1.00;;;;;;6154999;23;20738;-87
2024/01/25 03:48:26;;;;;;;63.67;11.30;;;7.80;1.00;;;;;;6156328;23;20479;-87
2024/01/25 03:50:56;;;;;;;45.60;10.33;;;7.80;1.00;;;;;;6155470;23;20234;-86
2024/01/25 03:53:22;;;;;;;50.33;9.93;;;7.70;1.00;;;;;;6155287;23;20183;-86
2024/01/25 03:55:48;;;;;;;41.10;10.63;;;7.70;1.00;;;;;;6155519;23;20378;-86
2024/01/25 03:58:15;;;;;;;52.88;10.90;;;7.70;1.00;;;;;;6154766;23;20415;-86
2024/01/25 04:00:40;;;;;;;62.63;14.30;;;7.60;1.00;;;;;;6154156;23;20234;-87
2024/01/25 04:03:06;;;;;;;45.63;11.60;;;7.60;1.00;;;;;;6155781;23;20372;-86
2024/01/25 04:05:31;;;;;;;48.40;10.63;;;7.60;1.00;;;;;;6155343;23;20147;-87
2024/01/25 04:07:57;;;;;;;51.67;11.97;;;7.60;1.00;;;;;;6152483;23;20509;-88
2024/01/25 04:10:22;;;;;;;48.93;11.70;;;7.60;1.00;;;;;;6156002;23;20336;-85
2024/01/25 04:12:48;;;;;;;43.40;13.07;;;7.50;1.00;;;;;;6153479;23;20667;-86
2024/01/25 04:15:13;;;;;;;52.07;12.83;;;7.50;1.00;;;;;;6152692;23;20526;-86
2024/01/25 04:17:39;;;;;;;44.07;11.00;;;7.50;1.00;;;;;;6151807;23;20163;-87
2024/01/25 04:20:05;;;;;;;63.70;14.20;;;7.50;1.00;;;;;;6153064;23;20163;-87
2024/01/25 04:22:31;;;;;;;54.10;11.97;;;7.50;1.00;;;;;;6156319;23;20156;-86
2024/01/25 04:24:56;;;;;;;52.23;10.80;;;7.50;1.00;;;;;;6154234;23;20957;-87
2024/01/25 04:27:22;;;;;;;51.17;10.20;;;7.40;1.00;;;;;;6155730;23;20155;-86
2024/01/25 04:29:48;;;;;;;49.83;12.33;;;7.40;1.00;;;;;;6155368;23;20221;-85
2024/01/25 04:32:13;;;;;;;53.87;11.50;;;7.40;1.00;;;;;;6154397;23;20159;-85
2024/01/25 04:34:39;;;;;;;48.97;10.30;;;7.40;1.00;;;;;;6156285;23;20613;-86
2024/01/25 04:37:04;;;;;;;57.03;10.93;;;7.40;1.00;;;;;;6155885;23;20595;-86
2024/01/25 04:39:30;;;;;;;62.40;13.03;;;7.40;1.00;;;;;;6155548;23;20187;-86
2024/01/25 04:41:55;;;;;;;53.00;12.27;;;7.30;1.00;;;;;;6154201;23;20160;-86
2024/01/25 04:44:21;;;;;;;50.50;10.23;;;7.30;1.00;;;;;;6154734;23;20171;-86
2024/01/25 04:46:46;;;;;;;35.70;9.50;;;7.30;1.00;;;;;;6154645;23;20163;-86
2024/01/25 04:49:12;;;;;;;49.67;8.80;;;7.20;1.00;;;;;;6154438;23;20166;-86
2024/01/25 04:51:37;;;;;;;43.70;9.20;;;7.20;1.00;;;;;;6157398;23;20162;-86
2024/01/25 04:54:03;;;;;;;33.70;8.87;;;7.10;1.00;;;;;;6158253;23;20175;-88
2024/01/25 04:56:29;;;;;;;45.57;11.07;;;7.10;1.00;;;;;;6157400;23;20615;-86
2024/01/25 04:58:54;;;;;;;34.10;9.37;;;7.10;1.00;;;;;;6157630;23;20218;-84
2024/01/25 05:01:20;;;;;;;56.00;7.97;;;7.00;1.00;;;;;;6156154;23;20152;-84
2024/01/25 05:03:46;;;;;;;57.17;8.53;;;7.00;1.00;;;;;;6156830;23;20514;-87
2024/01/25 05:06:11;;;;;;;42.60;8.40;;;7.00;1.00;;;;;;6155368;23;20187;-86
2024/01/25 05:08:37;;;;;;;36.17;8.23;;;6.90;1.00;;;;;;6156932;23;20230;-86
2024/01/25 05:11:02;;;;;;;43.10;9.37;;;6.90;1.00;;;;;;6156810;23;20163;-86
2024/01/25 05:13:28;;;;;;;48.57;9.67;;;6.90;1.00;;;;;;6158014;23;20178;-86
2024/01/25 05:15:54;;;;;;;53.97;9.47;;;6.90;1.00;;;;;;6157336;23;20182;-86
2024/01/25 05:18:19;;;;;;;52.67;11.00;;;6.80;1.00;;;;;;6155997;23;20179;-86
2024/01/25 05:20:45;;;;;;;49.33;9.00;;;6.80;1.00;;;;;;6156793;23;20613;-86
2024/01/25 05:23:10;;;;;;;47.13;8.77;;;6.80;1.00;;;;;;6156807;23;20537;-87
2024/01/25 05:25:36;;;;;;;59.23;9.20;;;6.80;1.00;;;;;;6156554;23;20242;-86
2024/01/25 05:28:02;;;;;;;38.20;8.93;;;6.80;1.00;;;;;;6159226;23;20160;-87
2024/01/25 05:30:27;;;;;;;37.63;8.77;;;6.80;1.00;;;;;;6155688;23;20162;-88
2024/01/25 05:32:54;;;;;;;37.23;8.27;;;6.70;1.00;;;;;;6152482;23;20394;-87
2024/01/25 05:35:20;;;;;;;48.25;8.15;;;6.70;1.00;;;;;;6154236;23;20279;-86
2024/01/25 05:37:45;;;;;;;53.00;8.80;;;6.70;1.00;;;;;;6155461;23;20250;-86
2024/01/25 05:40:11;;;;;;;43.20;9.33;;;6.70;1.00;;;;;;6156292;23;20415;-86
2024/01/25 05:42:37;;;;;;;51.05;9.55;;;6.70;1.00;;;;;;6162060;23;20151;-85
2024/01/25 05:45:04;;;;;;;48.55;10.27;;;6.70;1.00;;;;;;6159907;23;20170;-85
2024/01/25 05:47:30;;;;;;;37.05;8.68;;;6.70;1.00;;;;;;6159572;23;20155;-87
2024/01/25 05:49:56;;;;;;;41.30;9.40;;;6.60;1.00;;;;;;6160332;23;20163;-87
2024/01/25 05:52:22;;;;;;;68.50;10.65;;;6.60;1.00;;;;;;6160932;23;20375;-86
2024/01/25 05:54:48;;;;;;;42.45;8.27;;;6.60;1.00;;;;;;6161921;23;20205;-89
2024/01/25 05:57:14;;;;;;;49.58;8.95;;;6.60;1.00;;;;;;6158816;23;20152;-86
2024/01/25 05:59:40;;;;;;;57.55;10.02;;;6.50;1.00;;;;;;6155173;23;20440;-86
2024/01/25 06:02:05;;;;;;;34.63;9.10;;;6.50;1.00;;;;;;6156619;23;20159;-86
2024/01/25 06:04:31;;;;;;;47.67;8.33;;;6.50;1.00;;;;;;6156177;23;20179;-87
2024/01/25 06:06:57;;;;;;;49.87;9.73;;;6.50;1.00;;;;;;6156903;23;20155;-87
2024/01/25 06:09:24;;;;;;;40.40;8.73;;;6.50;1.00;;;;;;6158218;23;20383;-86
2024/01/25 06:11:50;;;;;;;46.35;9.45;;;6.40;1.00;;;;;;6158359;23;20586;-88
2024/01/25 06:14:16;;;;;;;37.77;10.00;;;6.40;1.00;;;;;;6159861;23;20202;-89
2024/01/25 06:16:41;;;;;;;54.53;9.53;;;6.40;1.00;;;;;;6159727;23;20395;-88
2024/01/25 06:19:07;;;;;;;36.97;9.07;;;6.30;1.00;;;;;;6161779;23;20254;-88
2024/01/25 06:21:37;;;;;;;39.60;8.02;;;6.30;1.00;;;;;;6161766;23;20247;-88
2024/01/25 06:24:04;;;;;;;55.42;10.43;;;6.30;1.00;;;;;;6163589;23;20190;-86
2024/01/25 06:26:29;;;;;;;47.72;11.13;;;6.20;1.00;;;;;;6159192;23;20154;-87
2024/01/25 06:28:56;;;;;;;40.83;9.70;;;6.20;3.40;;;;;;6159080;23;20179;-87
2024/01/25 06:31:22;;;;;;;51.60;9.75;;;6.20;4.80;;;;;;6156905;23;20449;-85
2024/01/25 06:33:50;;;;;;;64.37;10.63;;;6.20;5.40;;;;;;6157776;23;20171;-86
2024/01/25 06:36:19;;;;;;;64.80;11.82;;;6.20;6.90;;;;;;6155271;23;20174;-83
2024/01/25 06:38:45;;;;;;;50.70;9.38;;;6.20;8.80;;;;;;6157436;23;20198;-86
2024/01/25 06:41:10;;;;;;;46.97;10.37;;;6.20;10.50;;;;;;6158565;23;20600;-87
2024/01/25 06:43:36;;;;;;;58.33;11.60;;;6.20;13.40;;;;;;6157167;23;20179;-87
2024/01/25 06:46:02;;;;;;;57.77;11.73;;;6.20;13.20;;;;;;6155441;23;20156;-86
2024/01/25 06:48:27;;;;;;;60.23;11.53;;;6.20;13.80;;;;;;6156908;23;20155;-88
2024/01/25 06:50:53;;;;;;;56.77;10.93;;;6.20;14.90;;;;;;6156881;23;20505;-90
2024/01/25 06:53:19;;;;;;;47.50;9.90;;;6.20;15.20;;;;;;6156879;23;20253;-85
2024/01/25 06:55:44;;;;;;;51.00;10.23;;;6.10;16.20;;;;;;6157680;23;20159;-87
2024/01/25 06:58:10;;;;;;;48.00;12.70;;;6.10;15.80;;;;;;6156247;23;20175;-86
2024/01/25 07:00:38;;;;;;;63.47;13.50;;;6.10;17.00;;;;;;6156458;23;20171;-88
2024/01/25 07:03:04;;;;;;;42.28;9.85;;;6.10;16.80;;;;;;6154665;23;20152;-88
2024/01/25 07:05:33;;;;;;;53.15;11.43;;;6.10;17.50;;;;;;6155476;23;20307;-86
2024/01/25 07:07:59;;;;;;;61.17;11.15;;;6.10;19.80;;;;;;6155560;23;20239;-89
2024/01/25 07:10:24;;;;;;;47.20;12.13;;;6.10;19.50;;;;;;6154560;23;20187;-90
2024/01/25 07:12:50;;;;;;;62.37;12.40;;;6.10;21.50;;;;;;6154378;23;20394;-89
2024/01/25 07:15:16;;;;;;;67.97;12.80;;;6.10;27.50;;;;;;6153452;23;20179;-86
2024/01/25 07:17:42;;;;;;;47.80;12.07;;;6.10;32.70;;;;;;6153003;23;20218;-86
2024/01/25 07:20:08;;;;;;;51.37;12.03;;;6.10;37.90;;;;;;6154858;23;20409;-85
2024/01/25 07:22:34;;;;;;;55.60;12.80;;;6.20;46.80;;;;;;6155581;23;20410;-86
2024/01/25 07:25:00;;;;;;;64.10;12.67;;;6.30;51.30;;;;;;6154363;23;20501;-88
2024/01/25 07:27:26;;;;;;;73.77;12.40;;;6.30;49.60;;;;;;6154685;23;20453;-87
2024/01/25 07:29:51;;;;;;;55.33;13.60;;;6.40;43.90;;;;;;6159073;23;20379;-89
2024/01/25 07:32:18;;;;;;;56.83;11.97;;;6.50;37.20;;;;;;6156163;23;20872;-88
2024/01/25 07:34:44;;;;;;;51.75;12.73;;;6.50;29.60;;;;;;6153199;23;20179;-87
2024/01/25 07:37:11;;;;;;;65.93;11.33;;;6.60;24.80;;;;;;6155101;23;20670;-87
2024/01/25 07:39:36;;;;;;;55.28;12.48;;;6.70;19.40;;;;;;6155108;23;20626;-88
2024/01/25 07:42:02;;;;;;;52.10;12.93;;;6.70;14.20;;;;;;6154463;23;20158;-88
2024/01/25 07:44:27;;;;;;;48.37;12.13;;;6.80;8.50;;;;;;6152772;23;20621;-87
2024/01/25 07:46:53;;;;;;;61.70;13.83;;;6.90;4.70;;;;;;6153602;23;20147;-86
2024/01/25 07:49:18;;;;;;;47.47;12.07;;;6.90;1.00;;;;;;6152849;23;20630;-86
2024/01/25 07:51:44;;;;;;;47.27;12.47;;;7.10;1.00;;;;;;6152857;23;20160;-89
2024/01/25 07:54:10;;;;;;;69.67;12.73;;;7.20;1.00;;;;;;6153577;23;20171;-85
2024/01/25 07:56:35;;;;;;;82.40;13.10;;;7.40;1.00;;;;;;6152237;23;20156;-86
2024/01/25 07:59:01;;;;;;;62.37;11.37;;;7.70;1.00;;;;;;6152892;23;20651;-86
2024/01/25 08:01:26;;;;;;;43.97;9.70;;;8.00;1.00;;;;;;6152691;23;20155;-84
2024/01/25 08:03:52;;;;;;;53.30;10.77;;;8.30;1.00;;;;;;6154001;23;20176;-86
2024/01/25 08:06:17;;;;;;;45.53;9.50;;;8.50;1.00;;;;;;6153210;23;20159;-87
2024/01/25 08:08:43;;;;;;;41.50;11.50;;;8.80;1.00;;;;;;6152908;23;20170;-87
2024/01/25 08:11:09;;;;;;;49.93;11.47;;;9.10;1.00;;;;;;6152138;23;20160;-87
2024/01/25 08:13:34;;;;;;;36.70;10.00;;;9.50;1.00;;;;;;6149405;23;20183;-86
2024/01/25 08:16:00;;;;;;;49.23;12.43;;;10.00;1.00;;;;;;6150937;23;20717;-88
2024/01/25 08:18:29;;;;;;;47.53;11.40;;;10.60;99.90;;;;;;6148942;23;20891;-84
2024/01/25 08:20:54;;;;;;;50.03;11.13;;;11.10;1.00;;;;;;6151450;23;20203;-85
2024/01/25 08:23:20;;;;;;;40.70;9.23;;;11.50;99.90;;;;;;6149827;23;20386;-85
2024/01/25 08:25:46;;;;;;;34.13;9.50;;;11.70;99.90;;;;;;6152322;23;20366;-85
2024/01/25 08:28:11;;;;;;;41.10;9.50;;;11.80;1.00;;;;;;6153034;23;20155;-84
2024/01/25 08:30:37;;;;;;;25.87;8.53;;;11.70;1.00;;;;;;6149443;23;20162;-85
2024/01/25 08:33:03;;;;;;;47.47;9.07;;;11.50;1.00;;;;;;6149732;23;20226;-88
2024/01/25 08:35:30;;;;;;;43.00;10.17;;;11.50;1.00;;;;;;6149365;23;20183;-87
2024/01/25 08:37:56;;;;;;;41.17;8.53;;;11.40;99.90;;;;;;6146144;23;20536;-86
2024/01/25 08:40:21;;;;;;;33.23;9.00;;;11.40;99.90;;;;;;6152047;23;20383;-87
2024/01/25 08:42:47;;;;;;;37.70;8.90;;;11.50;99.90;;;;;;6151672;23;20183;-86
2024/01/25 08:45:21;;;;;;;44.47;10.47;;;11.50;99.90;;;;;;6153721;23;20712;-87
2024/01/25 08:47:49;;;;;;;44.67;9.67;;;11.50;1.00;;;;;;6151601;23;20158;-88
2024/01/25 08:50:15;;;;;;;40.90;9.77;;;11.50;1.00;;;;;;6151352;23;20386;-85
2024/01/25 08:52:41;;;;;;;46.90;10.97;;;11.30;99.90;;;;;;6152500;23;20387;-86
2024/01/25 08:55:20;;;;;;;42.73;9.50;;;11.20;1.00;;;;;;6153488;23;20473;-85
2024/01/25 08:57:48;;;;;;;43.77;10.77;;;11.30;1.00;;;;;;6150113;23;20147;-87
2024/01/25 09:00:15;;;;;;;32.73;9.43;;;11.50;99.90;;;;;;6154012;23;20389;-86
2024/01/25 09:02:43;;;;;;;37.10;10.67;;;11.70;99.90;;;;;;6152195;23;20410;-84
2024/01/25 09:05:11;;;;;;;39.83;11.33;;;11.80;71.50;;;;;;6152702;23;20399;-86
2024/01/25 09:07:37;;;;;;;40.13;10.17;;;11.90;1.00;;;;;;6150022;23;20383;-86
2024/01/25 09:10:11;;;;;;;37.93;10.10;;;11.90;1.00;;;;;;6150309;23;20394;-87
2024/01/25 09:12:48;;;;;;;46.57;10.40;;;11.90;1.00;;;;;;6150652;23;20383;-87
2024/01/25 09:15:14;;;;;;;38.43;9.90;;;12.00;1.00;;;;;;6149450;23;20800;-87
2024/01/25 09:17:40;;;;;;;45.15;10.85;;;11.90;1.00;;;;;;6150289;23;20383;-86
2024/01/25 09:20:07;;;;;;;40.17;12.13;;;12.00;1.00;;;;;;6150242;23;20147;-88
2024/01/25 09:22:33;;;;;;;42.03;11.47;;;11.90;1.00;;;;;;6148929;23;20490;-86
2024/01/25 09:25:04;;;;;;;41.30;12.57;;;12.00;1.00;;;;;;6148214;23;20426;-86
2024/01/25 09:27:30;;;;;;;48.03;13.63;;;11.80;1.00;;;;;;6148972;23;20407;-87
2024/01/25 09:30:02;;;;;;;56.47;13.30;;;11.50;1.00;;;;;;6150429;23;20375;-87
2024/01/25 09:32:27;;;;;;;38.30;14.17;;;11.50;99.90;;;;;;6151033;23;20155;-87
2024/01/25 09:34:54;;;;;;;52.67;16.80;;;11.60;99.90;;;;;;6150188;23;20414;-86
2024/01/25 09:37:25;;;;;;;45.67;13.80;;;11.40;99.90;;;;;;6149602;23;20511;-84
2024/01/25 09:39:51;;;;;;;47.20;15.27;;;11.30;1.00;;;;;;6153126;23;20910;-84
2024/01/25 09:42:18;;;;;;;49.67;14.47;;;11.30;1.00;;;;;;6152652;23;20379;-87
2024/01/25 09:44:46;;;;;;;52.63;15.10;;;11.30;16.70;;;;;;6151501;23;20305;-88
2024/01/25 09:47:12;;;;;;;56.93;16.10;;;11.40;1.00;;;;;;6152036;23;20386;-88
2024/01/25 09:49:38;;;;;;;55.70;16.60;;;11.40;1.00;;;;;;6151015;23;20486;-88
2024/01/25 09:52:12;;;;;;;55.87;16.23;;;11.50;1.00;;;;;;6153842;23;20758;-86
2024/01/25 09:54:39;;;;;;;56.17;17.63;;;11.50;1.00;;;;;;6151645;23;20294;-84
2024/01/25 09:57:18;;;;;;;55.07;17.23;;;11.60;1.00;;;;;;6154970;23;20383;-84
2024/01/25 09:59:46;;;;;;;52.00;15.70;;;11.30;1.00;;;;;;6154897;23;20918;-83
2024/01/25 10:02:12;;;;;;;56.13;18.27;;;11.10;99.90;;;;;;6153814;23;20393;-84
2024/01/25 10:04:38;;;;;;;54.10;17.67;;;11.00;1.00;;;;;;6153011;23;20752;-84
2024/01/25 10:07:03;;;;;;;54.13;19.00;;;11.10;99.90;;;;;;6152982;23;20175;-84
2024/01/25 10:09:38;;;;;;;50.90;19.00;;;11.10;99.90;;;;;;6156378;23;20167;-86
2024/01/25 10:12:05;;;;;;;53.20;18.73;;;11.00;99.90;;;;;;6159058;23;20155;-84
2024/01/25 10:14:30;;;;;;;48.60;17.50;;;11.00;1.00;;;;;;6160173;23;20402;-83
2024/01/25 10:16:57;;;;;;;50.47;19.17;;;11.10;99.90;;;;;;6159369;23;20397;-85
2024/01/25 10:19:23;;;;;;;49.03;18.90;;;11.20;99.90;;;;;;6159625;23;20187;-86
2024/01/25 10:21:49;;;;;;;53.27;19.90;;;11.20;99.90;;;;;;6162589;23;20399;-86
2024/01/25 10:24:15;;;;;;;53.77;19.50;;;11.30;1.00;;;;;;6160664;23;20206;-87
2024/01/25 10:26:42;;;;;;;58.10;20.43;;;11.40;99.90;;;;;;6162471;23;20390;-85
2024/01/25 10:29:08;;;;;;;60.27;19.90;;;11.40;1.00;;;;;;6162078;23;20539;-87
2024/01/25 10:31:40;;;;;;;57.27;19.27;;;11.40;1.00;;;;;;6159644;23;20387;-87
2024/01/25 10:34:08;;;;;;;52.40;18.63;;;11.30;1.00;;;;;;6160246;23;20453;-83
2024/01/25 10:36:35;;;;;;;43.43;17.60;;;11.40;1.00;;;;;;6157929;23;20435;-86
2024/01/25 10:39:04;;;;;;;55.33;19.20;;;11.70;99.90;;;;;;6159859;23;20415;-86
2024/01/25 10:41:32;;;;;;;56.23;20.20;;;12.10;1.00;;;;;;6163288;23;20827;-87
2024/01/25 10:43:58;;;;;;;46.70;18.50;;;12.30;99.90;;;;;;6163897;23;20454;-86
2024/01/25 10:46:24;;;;;;;47.20;17.33;;;12.50;1.00;;;;;;6161179;23;20845;-86
2024/01/25 10:48:51;;;;;;;52.93;19.37;;;12.60;1.00;;;;;;6158266;23;20234;-84
2024/01/25 10:51:18;;;;;;;51.60;19.93;;;12.90;1.00;;;;;;6153252;23;20837;-85
2024/01/25 10:53:44;;;;;;;47.60;17.20;;;13.00;99.90;;;;;;6159153;23;21049;-86
2024/01/25 10:56:11;;;;;;;51.60;19.13;;;13.10;99.90;;;;;;6158174;23;20441;-87
2024/01/25 10:58:41;;;;;;;52.67;21.43;;;13.10;99.90;;;;;;6157841;23;20565;-85
2024/01/25 11:01:14;;;;;;;46.77;17.50;;;13.20;99.90;;;;;;6159141;23;20387;-86
2024/01/25 11:03:40;;;;;;;36.80;15.67;;;13.30;99.90;;;;;;6158181;23;20411;-86
2024/01/25 11:06:10;;;;;;;38.40;16.17;;;13.50;99.90;;;;;;6159403;23;20382;-86
2024/01/25 11:08:38;;;;;;;48.17;16.20;;;13.60;28.60;;;;;;6157985;23;20425;-85
2024/01/25 11:11:08;;;;;;;44.90;17.73;;;13.70;1.00;;;;;;6157511;23;20375;-87
2024/01/25 11:13:43;;;;;;;50.83;15.73;;;13.70;1.00;;;;;;6159064;23;20474;-86
2024/01/25 11:16:16;;;;;;;45.53;14.90;;;13.80;1.00;;;;;;6157048;23;20401;-86
2024/01/25 11:18:49;;;;;;;37.07;14.90;;;14.00;1.00;;;;;;6158642;23;20415;-87
2024/01/25 11:21:42;;;;;;;39.77;13.67;;;14.20;1.00;;;;;;6157684;23;20379;-85
2024/01/25 11:24:22;;;;;;;38.13;14.27;;;14.60;1.00;;;;;;6148508;23;20426;-85
2024/01/25 11:26:48;;;;;;;42.50;14.70;;;15.10;1.00;;;;;;6156766;23;20442;-85
2024/01/25 11:29:18;;;;;;;39.37;13.47;;;15.30;1.00;;;;;;6160477;23;20842;-85
2024/01/25 11:31:44;;;;;;;37.23;14.30;;;15.40;1.00;;;;;;6159141;23;20392;-85
2024/01/25 11:34:11;;;;;;;43.73;13.43;;;15.60;1.00;;;;;;6157243;23;20477;-85
2024/01/25 11:36:37;;;;;;;42.43;13.13;;;15.90;1.00;;;;;;6157932;23;20410;-86
2024/01/25 11:39:03;;;;;;;41.87;12.37;;;16.20;1.00;;;;;;6158702;23;20386;-87
2024/01/25 11:41:30;;;;;;;38.93;13.77;;;16.30;1.00;;;;;;6156272;23;20386;-86
2024/01/25 11:43:58;;;;;;;41.83;13.97;;;16.50;1.00;;;;;;6159290;23;20172;-85
2024/01/25 11:46:28;;;;;;;32.70;12.27;;;16.70;1.00;;;;;;6157943;23;20723;-85
2024/01/25 11:48:53;;;;;;;35.40;12.87;;;16.70;99.90;;;;;;6157957;23;20585;-85
2024/01/25 11:51:19;;;;;;;40.83;11.90;;;16.50;99.90;;;;;;6157620;23;20395;-86
2024/01/25 11:53:44;;;;;;;38.70;12.60;;;16.50;99.90;;;;;;6161674;23;20171;-85
2024/01/25 11:56:16;;;;;;;37.23;12.47;;;16.70;99.90;;;;;;6159946;23;20163;-85
2024/01/25 11:58:43;;;;;;;40.20;12.90;;;16.70;99.90;;;;;;6155228;23;20152;-86
2024/01/25 12:01:09;;;;;;;32.10;11.70;;;16.70;99.90;;;;;;6158400;23;20414;-88
2024/01/25 12:03:38;;;;;;;30.20;10.60;;;16.80;99.90;;;;;;6158286;23;20422;-86
2024/01/25 12:06:05;;;;;;;36.00;11.20;;;16.80;99.90;;;;;;6157654;23;20387;-86
2024/01/25 12:08:35;;;;;;;26.67;10.13;;;16.60;99.90;;;;;;6158094;23;20423;-86
2024/01/25 12:11:04;;;;;;;35.53;10.60;;;16.70;99.90;;;;;;6156989;23;20388;-86
2024/01/25 12:13:33;;;;;;;48.30;12.03;;;16.90;99.90;;;;;;6155965;23;20734;-85
2024/01/25 12:16:00;;;;;;;39.57;11.77;;;16.90;99.90;;;;;;6157569;23;20368;-85
2024/01/25 12:18:26;;;;;;;41.73;11.47;;;16.70;99.90;;;;;;6155544;23;20474;-84
2024/01/25 12:20:51;;;;;;;40.23;10.77;;;16.60;99.90;;;;;;6158279;23;20723;-84
2024/01/25 12:23:17;;;;;;;32.50;11.97;;;16.60;99.90;;;;;;6157623;23;20459;-84
2024/01/25 12:25:42;;;;;;;32.53;11.00;;;16.70;99.90;;;;;;6156765;23;20560;-84
2024/01/25 12:28:10;;;;;;;33.90;12.40;;;16.60;99.90;;;;;;6154881;23;20522;-86
2024/01/25 12:30:37;;;;;;;34.73;11.27;;;16.50;99.90;;;;;;6155329;23;20238;-85
2024/01/25 12:33:03;;;;;;;33.53;11.00;;;16.60;99.90;;;;;;6154407;23;20379;-84
2024/01/25 12:35:31;;;;;;;37.73;11.43;;;16.70;99.90;;;;;;6156470;23;20395;-85
2024/01/25 12:37:56;;;;;;;34.57;9.80;;;16.90;99.90;;;;;;6157273;23;20363;-86
2024/01/25 12:40:24;;;;;;;39.97;10.80;;;17.20;99.90;;;;;;6157256;23;20826;-87
2024/01/25 12:42:50;;;;;;;35.73;11.20;;;17.40;99.90;;;;;;6156157;23;20148;-86